Time;durP1;ratioP1;P1;durP2;ratioP2;P2;SDS_P1;SDS_P2;PMS_P1;PMS_P2;Temp;Humidity;BMP_temperature;BMP_pressure;BME280_temperature;BME280_humidity;BME280_pressure;Samples;Min_cycle;Max_cycle;Signal;HPM_P1;HPM_P2
2023/09/03 00:00:22;;;;;;;11.73;10.53;;;;;;;17.32;94.73;101690.59;5075926;28;20644;-84
2023/09/03 00:02:48;;;;;;;11.03;9.93;;;;;;;17.29;94.44;101690.81;5075626;28;20205;-84
2023/09/03 00:05:16;;;;;;;10.77;9.63;;;;;;;17.24;94.57;101690.28;5075184;28;20208;-83
2023/09/03 00:07:43;;;;;;;11.83;10.13;;;;;;;17.22;94.68;101686.84;5075517;28;20211;-82
2023/09/03 00:10:10;;;;;;;11.03;9.83;;;;;;;17.19;94.80;101681.72;5076132;28;20226;-85
2023/09/03 00:12:36;;;;;;;11.57;10.57;;;;;;;17.16;94.94;101676.56;5075410;28;20197;-84
2023/09/03 00:15:03;;;;;;;11.23;10.23;;;;;;;17.14;94.83;101677.63;5075562;28;20212;-82
2023/09/03 00:17:30;;;;;;;11.47;10.13;;;;;;;17.10;95.05;101685.06;5075748;28;20216;-83
2023/09/03 00:19:57;;;;;;;11.90;10.70;;;;;;;17.06;95.31;101674.66;5075263;28;20238;-85
2023/09/03 00:22:24;;;;;;;11.47;10.00;;;;;;;17.02;95.36;101680.25;5075283;28;20232;-83
2023/09/03 00:24:51;;;;;;;10.97;9.97;;;;;;;17.00;95.30;101684.06;5076166;28;20201;-82
2023/09/03 00:27:17;;;;;;;11.60;10.50;;;;;;;16.96;95.37;101682.56;5076334;28;20201;-82
2023/09/03 00:29:44;;;;;;;12.03;10.83;;;;;;;16.92;95.68;101681.06;5075817;28;20240;-83
2023/09/03 00:32:10;;;;;;;10.93;9.83;;;;;;;16.88;95.43;101676.84;5075201;28;20214;-83
2023/09/03 00:34:37;;;;;;;11.03;10.03;;;;;;;16.83;95.33;101677.22;5075785;28;20209;-84
2023/09/03 00:37:04;;;;;;;11.23;10.07;;;;;;;16.79;95.11;101691.00;5074857;28;20220;-84
2023/09/03 00:39:31;;;;;;;10.53;9.27;;;;;;;16.73;95.00;101689.59;5074855;28;20238;-82
2023/09/03 00:41:58;;;;;;;10.77;9.67;;;;;;;16.66;95.16;101697.25;5075542;28;20216;-83
2023/09/03 00:44:24;;;;;;;11.27;10.07;;;;;;;16.61;95.03;101693.16;5074243;28;20209;-84
2023/09/03 00:46:51;;;;;;;10.77;9.77;;;;;;;16.56;95.23;101695.31;5075328;28;20214;-84
2023/09/03 00:49:22;;;;;;;12.57;10.40;;;;;;;16.52;95.44;101704.56;5075211;28;20228;-83
2023/09/03 00:51:51;;;;;;;12.10;10.67;;;;;;;16.48;95.78;101706.59;5074677;28;20580;-82
2023/09/03 00:54:18;;;;;;;11.73;10.53;;;;;;;16.46;95.86;101713.09;5075031;28;20221;-84
2023/09/03 00:56:47;;;;;;;11.37;10.13;;;;;;;16.41;95.96;101726.00;5075277;28;20207;-83
2023/09/03 00:59:13;;;;;;;11.03;9.93;;;;;;;16.38;96.07;101720.81;5075076;28;20710;-82
2023/09/03 01:01:40;;;;;;;11.60;10.47;;;;;;;16.33;96.39;101723.81;5074842;28;20302;-81
2023/09/03 01:04:06;;;;;;;11.83;10.43;;;;;;;16.30;96.56;101721.38;5075669;28;20204;-84
2023/09/03 01:06:33;;;;;;;11.67;10.47;;;;;;;16.29;97.00;101730.41;5076048;28;20212;-83
2023/09/03 01:08:59;;;;;;;11.33;10.23;;;;;;;16.25;97.04;101729.75;5074599;28;20211;-83
2023/09/03 01:11:36;;;;;;;10.87;9.77;;;;;;;16.22;96.76;101758.69;5074714;28;20211;-83
2023/09/03 01:14:16;;;;;;;10.97;9.87;;;;;;;16.18;96.96;101744.59;5076120;28;20194;-82
2023/09/03 01:16:51;;;;;;;10.67;9.57;;;;;;;16.14;96.89;101748.44;5075751;28;20230;-83
2023/09/03 01:19:42;;;;;;;11.10;10.00;;;;;;;16.11;97.14;101739.75;5074374;28;20232;-83
2023/09/03 01:22:21;;;;;;;10.50;9.60;;;;;;;16.09;97.13;101739.88;5075167;28;20195;-83
2023/09/03 01:25:04;;;;;;;10.63;9.40;;;;;;;16.05;97.29;101726.75;5076125;28;20199;-81
2023/09/03 01:27:41;;;;;;;10.87;8.87;;;;;;;16.03;97.00;101720.59;5074011;28;20655;-82
2023/09/03 01:30:11;;;;;;;10.63;9.63;;;;;;;16.00;96.80;101724.34;5074770;28;20743;-83
2023/09/03 01:32:38;;;;;;;9.57;8.57;;;;;;;15.97;96.85;101732.63;5074978;28;20235;-85
2023/09/03 01:35:07;;;;;;;10.00;8.63;;;;;;;15.94;96.81;101739.06;5074554;28;20311;-82
2023/09/03 01:37:33;;;;;;;9.33;8.43;;;;;;;15.92;97.10;101732.97;5074254;28;20213;-82
2023/09/03 01:40:00;;;;;;;13.33;9.30;;;;;;;15.91;96.79;101731.25;5074211;28;20246;-82
2023/09/03 01:42:26;;;;;;;9.60;8.70;;;;;;;15.88;96.88;101736.81;5075473;28;20604;-83
2023/09/03 01:44:53;;;;;;;10.60;9.27;;;;;;;15.86;96.93;101733.38;5073946;28;20626;-84
2023/09/03 01:47:28;;;;;;;9.23;8.20;;;;;;;15.85;96.95;101742.41;5074072;28;20208;-83
2023/09/03 01:50:01;;;;;;;10.63;8.90;;;;;;;15.83;96.88;101749.69;5073853;28;20235;-86
2023/09/03 01:52:37;;;;;;;10.13;8.40;;;;;;;15.81;97.09;101753.44;5074890;28;20196;-82
2023/09/03 01:55:08;;;;;;;9.57;8.67;;;;;;;15.79;96.87;101766.97;5074083;28;20257;-84
2023/09/03 01:57:40;;;;;;;10.03;9.13;;;;;;;15.76;96.66;101759.16;5074141;28;20190;-84
2023/09/03 02:00:11;;;;;;;9.27;8.37;;;;;;;15.73;96.37;101742.38;5074894;28;20237;-86
2023/09/03 02:02:42;;;;;;;11.07;9.33;;;;;;;15.73;96.31;101743.25;5075478;28;20191;-84
2023/09/03 02:05:08;;;;;;;9.40;8.50;;;;;;;15.70;96.25;101739.91;5075364;28;20199;-85
2023/09/03 02:07:36;;;;;;;10.67;9.23;;;;;;;15.68;96.57;101745.38;5075531;28;20214;-83
2023/09/03 02:10:03;;;;;;;13.03;9.70;;;;;;;15.67;96.96;101750.84;5076339;28;20235;-84
2023/09/03 02:12:30;;;;;;;9.33;8.43;;;;;;;15.62;96.25;101732.34;5074810;28;20203;-83
2023/09/03 02:14:56;;;;;;;8.43;7.63;;;;;;;15.56;96.20;101724.72;5075443;28;20212;-83
2023/09/03 02:17:24;;;;;;;9.77;8.77;;;;;;;15.52;96.10;101728.53;5074384;28;20222;-82
2023/09/03 02:19:54;;;;;;;9.47;7.97;;;;;;;15.46;95.58;101723.56;5074032;28;20230;-82
2023/09/03 02:22:21;;;;;;;9.93;9.03;;;;;;;15.41;95.02;101718.50;5072632;28;20263;-82
2023/09/03 02:24:47;;;;;;;11.33;8.93;;;;;;;15.33;94.26;101710.09;5072277;28;20203;-83
2023/09/03 02:27:14;;;;;;;10.30;9.23;;;;;;;15.23;94.33;101704.47;5072729;28;20210;-83
2023/09/03 02:29:40;;;;;;;11.17;10.03;;;;;;;15.16;94.34;101705.00;5073031;28;20600;-82
2023/09/03 02:32:07;;;;;;;10.77;9.67;;;;;;;15.10;95.24;101708.06;5073869;28;20207;-81
2023/09/03 02:34:34;;;;;;;10.37;9.20;;;;;;;15.08;96.08;101704.63;5073200;28;20211;-82
2023/09/03 02:37:02;;;;;;;9.73;8.83;;;;;;;15.05;96.45;101708.34;5073336;28;20207;-83
2023/09/03 02:39:29;;;;;;;9.53;8.53;;;;;;;15.05;96.47;101708.34;5074264;28;20287;-84
2023/09/03 02:41:57;;;;;;;10.33;9.33;;;;;;;15.01;96.19;101708.69;5073229;28;20224;-83
2023/09/03 02:44:23;;;;;;;8.70;7.87;;;;;;;14.97;95.79;101717.88;5073659;28;20217;-85
2023/09/03 02:46:50;;;;;;;9.27;8.47;;;;;;;14.89;95.05;101721.91;5074008;28;20810;-82
2023/09/03 02:49:17;;;;;;;9.63;8.83;;;;;;;14.84;95.45;101717.81;5081703;28;20224;-84
2023/09/03 02:51:43;;;;;;;8.80;7.90;;;;;;;14.80;95.56;101716.28;5095326;28;20212;-85
2023/09/03 02:54:11;;;;;;;10.00;9.07;;;;;;;14.74;96.25;101714.00;5096877;28;20204;-82
2023/09/03 02:56:37;;;;;;;8.17;7.43;;;;;;;14.70;96.22;101715.13;5095609;28;20204;-84
2023/09/03 02:59:04;;;;;;;8.70;7.73;;;;;;;14.65;96.31;101717.28;5096146;28;20236;-84
2023/09/03 03:01:31;;;;;;;8.80;8.00;;;;;;;14.61;97.26;101716.59;5097183;28;20670;-82
2023/09/03 03:03:58;;;;;;;9.33;8.30;;;;;;;14.58;97.60;101712.28;5094723;28;20208;-82
2023/09/03 03:06:24;;;;;;;8.70;7.90;;;;;;;14.58;98.05;101706.91;5094700;28;20209;-83
2023/09/03 03:08:51;;;;;;;8.90;8.10;;;;;;;14.58;97.90;101706.06;5095437;28;20221;-81
2023/09/03 03:11:19;;;;;;;11.73;8.63;;;;;;;14.56;98.00;101698.09;5094511;28;20281;-83
2023/09/03 03:13:50;;;;;;;8.27;7.37;;;;;;;14.51;97.48;101704.75;5094311;28;20207;-81
2023/09/03 03:16:16;;;;;;;8.60;7.80;;;;;;;14.47;98.29;101709.44;5095301;28;20683;-83
2023/09/03 03:18:45;;;;;;;10.50;8.30;;;;;;;14.43;98.34;101726.66;5094892;28;20209;-81
2023/09/03 03:21:14;;;;;;;8.27;7.47;;;;;;;14.40;98.49;101718.81;5096394;28;20220;-82
2023/09/03 03:23:41;;;;;;;10.10;8.90;;;;;;;14.35;98.86;101720.00;5096959;28;20219;-83
2023/09/03 03:26:08;;;;;;;7.60;6.90;;;;;;;14.30;99.56;101722.13;5096203;28;20204;-83
2023/09/03 03:28:36;;;;;;;6.53;5.93;;;;;;;14.27;100.00;101731.22;5096018;28;20208;-83
2023/09/03 03:31:10;;;;;;;7.70;6.97;;;;;;;14.25;100.00;101741.16;5096206;28;20248;-83
2023/09/03 03:33:37;;;;;;;6.93;6.33;;;;;;;14.22;100.00;101746.69;5097137;28;20260;-82
2023/09/03 03:36:04;;;;;;;7.07;6.47;;;;;;;14.20;100.00;101751.28;5098352;28;20247;-83
2023/09/03 03:38:31;;;;;;;8.93;8.03;;;;;;;14.17;100.00;101767.53;5098209;28;20227;-83
2023/09/03 03:41:07;;;;;;;9.33;8.37;;;;;;;14.14;100.00;101768.63;5098910;28;20231;-82
2023/09/03 03:43:35;;;;;;;8.30;6.97;;;;;;;14.14;100.00;101773.13;5099015;28;20188;-82
2023/09/03 03:46:02;;;;;;;8.87;7.97;;;;;;;14.13;100.00;101780.28;5099167;28;20211;-83
2023/09/03 03:48:28;;;;;;;10.07;8.30;;;;;;;14.14;100.00;101786.50;5098599;28;20208;-82
2023/09/03 03:50:55;;;;;;;9.07;8.17;;;;;;;14.13;100.00;101780.28;5099797;28;20230;-81
2023/09/03 03:53:22;;;;;;;10.53;9.43;;;;;;;14.11;100.00;101781.31;5098949;28;20632;-82
2023/09/03 03:55:48;;;;;;;9.43;8.53;;;;;;;14.10;100.00;101774.25;5098351;28;20711;-83
2023/09/03 03:58:15;;;;;;;8.77;7.87;;;;;;;14.11;100.00;101775.97;5098499;28;20324;-80
2023/09/03 04:00:43;;;;;;;9.57;8.40;;;;;;;14.12;100.00;101781.25;5097800;28;20282;-83
2023/09/03 04:03:10;;;;;;;12.00;8.83;;;;;;;14.12;100.00;101773.19;5098400;28;20235;-83
2023/09/03 04:05:36;;;;;;;9.63;8.63;;;;;;;14.12;100.00;101770.53;5098400;28;20208;-82
2023/09/03 04:08:03;;;;;;;9.13;8.23;;;;;;;14.14;100.00;101786.50;5097488;28;20204;-83
2023/09/03 04:10:29;;;;;;;10.97;8.87;;;;;;;14.14;100.00;101775.78;5098255;28;20609;-82
2023/09/03 04:12:56;;;;;;;9.37;8.00;;;;;;;14.13;100.00;101776.75;5098618;28;20208;-82
2023/09/03 04:15:23;;;;;;;7.60;6.90;;;;;;;14.09;100.00;101780.56;5097108;28;20204;-83
2023/09/03 04:17:51;;;;;;;7.00;6.33;;;;;;;14.05;100.00;101792.41;5097015;28;20216;-85
2023/09/03 04:20:17;;;;;;;7.50;6.53;;;;;;;14.00;99.82;101791.81;5097469;28;20220;-83
2023/09/03 04:22:44;;;;;;;7.77;6.97;;;;;;;13.94;99.94;101801.09;5096910;28;20204;-80
2023/09/03 04:25:10;;;;;;;7.07;6.37;;;;;;;13.89;99.78;101801.34;5097404;28;20216;-81
2023/09/03 04:27:37;;;;;;;7.37;6.70;;;;;;;13.88;100.00;101796.06;5097900;28;20204;-82
2023/09/03 04:30:04;;;;;;;9.20;7.60;;;;;;;13.87;100.00;101794.34;5097602;28;20220;-82
2023/09/03 04:32:31;;;;;;;9.43;8.50;;;;;;;13.87;100.00;101792.53;5097190;28;20219;-82
2023/09/03 04:35:00;;;;;;;9.03;8.13;;;;;;;13.89;100.00;101793.31;5098633;28;20215;-82
2023/09/03 04:37:26;;;;;;;10.87;9.53;;;;;;;13.93;100.00;101790.47;5097704;28;20240;-82
2023/09/03 04:39:53;;;;;;;11.00;9.67;;;;;;;13.96;100.00;101807.22;5099140;28;20251;-81
2023/09/03 04:42:20;;;;;;;12.83;10.37;;;;;;;14.00;100.00;101811.41;5098653;28;20203;-83
2023/09/03 04:44:46;;;;;;;11.63;9.97;;;;;;;14.05;100.00;101805.78;5098634;28;20210;-83
2023/09/03 04:47:12;;;;;;;11.43;10.30;;;;;;;14.07;100.00;101801.22;5098891;28;20231;-82
2023/09/03 04:49:39;;;;;;;11.67;10.47;;;;;;;14.09;100.00;101810.03;5096679;28;20224;-83
2023/09/03 04:52:07;;;;;;;11.93;10.60;;;;;;;14.11;100.00;101816.16;5097131;28;20204;-81
2023/09/03 04:54:34;;;;;;;11.13;10.03;;;;;;;14.12;100.00;101815.19;5097191;28;20212;-82
2023/09/03 04:57:01;;;;;;;11.10;9.57;;;;;;;14.12;100.00;101815.19;5096727;28;20691;-82
2023/09/03 04:59:28;;;;;;;12.43;9.93;;;;;;;14.12;100.00;101816.06;5096354;28;20255;-83
2023/09/03 05:01:54;;;;;;;10.33;9.23;;;;;;;14.11;100.00;101814.34;5097429;28;20656;-83
2023/09/03 05:04:21;;;;;;;13.67;11.43;;;;;;;14.12;100.00;101829.47;5098537;28;20732;-83
2023/09/03 05:06:47;;;;;;;11.60;10.40;;;;;;;14.12;100.00;101844.66;5098143;28;20222;-83
2023/09/03 05:09:18;;;;;;;13.43;10.90;;;;;;;14.11;100.00;101851.84;5096620;28;20565;-82
2023/09/03 05:11:44;;;;;;;13.10;10.87;;;;;;;14.11;100.00;101865.25;5097167;28;20200;-81
2023/09/03 05:14:13;;;;;;;13.00;11.03;;;;;;;14.12;100.00;101858.94;5095482;28;20219;-81
2023/09/03 05:16:39;;;;;;;13.37;10.77;;;;;;;14.11;100.00;101851.84;5096356;28;20222;-82
2023/09/03 05:19:06;;;;;;;12.00;10.17;;;;;;;14.12;100.00;101866.97;5096252;28;20212;-83
2023/09/03 05:21:33;;;;;;;12.87;11.03;;;;;;;14.15;100.00;101866.75;5096406;28;20573;-81
2023/09/03 05:23:59;;;;;;;12.07;10.40;;;;;;;14.15;100.00;101871.28;5096267;28;20216;-82
2023/09/03 05:26:27;;;;;;;11.73;10.50;;;;;;;14.16;100.00;101872.97;5096506;28;20551;-82
2023/09/03 05:28:54;;;;;;;12.93;11.50;;;;;;;14.16;100.00;101881.88;5096376;28;20214;-82
2023/09/03 05:31:20;;;;;;;13.63;11.20;;;;;;;14.17;100.00;101880.94;5096288;28;20220;-81
2023/09/03 05:33:47;;;;;;;11.77;10.03;;;;;;;14.18;100.00;101888.03;5095131;28;20321;-83
2023/09/03 05:36:13;;;;;;;13.50;10.83;;;;;;;14.20;100.00;101904.00;5095176;28;20230;-84
2023/09/03 05:38:42;;;;;;;12.50;9.90;;;;;;;14.21;100.00;101906.59;5095403;28;20208;-83
2023/09/03 05:41:09;;;;;;;12.90;10.27;;;;;;;14.23;100.00;101915.41;5096194;28;20233;-84
2023/09/03 05:43:37;;;;;;;11.13;9.77;;;;;;;14.25;100.00;101920.69;5095188;28;20208;-82
2023/09/03 05:46:03;;;;;;;12.97;11.13;;;;;;;14.26;100.00;101922.41;5095932;28;20208;-85
2023/09/03 05:48:30;;;;;;;14.37;10.63;;;;;;;14.28;100.00;101925.00;5095345;28;20204;-84
2023/09/03 05:50:59;;;;;;;14.57;11.70;;;;;;;14.30;100.00;101928.47;5095144;28;20693;-81
2023/09/03 05:53:25;;;;;;;13.53;10.37;;;;;;;14.32;100.00;101926.56;5095012;28;20307;-83
2023/09/03 05:55:52;;;;;;;13.97;11.03;;;;;;;14.35;100.00;101931.72;5094489;28;20209;-84
2023/09/03 05:58:18;;;;;;;13.53;11.97;;;;;;;14.35;100.00;101943.31;5094810;28;20209;-83
2023/09/03 06:00:46;;;;;;;13.57;10.60;;;;;;;14.37;100.00;101933.34;5094810;28;20241;-81
2023/09/03 06:03:12;;;;;;;13.87;11.70;;;;;;;14.40;100.00;101929.63;5094410;28;20208;-82
2023/09/03 06:05:40;;;;;;;14.43;12.33;;;;;;;14.40;100.00;101943.94;5094718;28;20665;-82
2023/09/03 06:08:06;;;;;;;14.53;12.57;;;;;;;14.43;100.00;101937.53;5094685;28;20216;-82
2023/09/03 06:10:33;;;;;;;16.13;13.00;;;;;;;14.44;100.00;101937.44;5094223;28;20739;-82
2023/09/03 06:12:59;;;;;;;14.03;12.53;;;;;;;14.46;100.00;101932.88;5094460;28;20227;-81
2023/09/03 06:15:26;;;;;;;16.53;13.20;;;;;;;14.50;100.00;101933.56;5094530;28;20212;-82
2023/09/03 06:17:53;;;;;;;14.93;12.47;;;;;;;14.54;100.00;101929.72;5094379;28;20246;-83
2023/09/03 06:20:20;;;;;;;14.57;12.17;;;;;;;14.55;100.00;101934.13;5095180;28;20585;-83
2023/09/03 06:22:46;;;;;;;15.33;12.43;;;;;;;14.57;100.00;101943.81;5095588;28;20215;-85
2023/09/03 06:25:13;;;;;;;13.97;12.47;;;;;;;14.60;100.00;101942.75;5095210;28;20661;-81
2023/09/03 06:27:40;;;;;;;17.47;13.70;;;;;;;14.61;100.00;101952.53;5094636;28;20200;-85
2023/09/03 06:30:09;;;;;;;15.03;12.80;;;;;;;14.64;100.00;101956.84;5094471;28;20223;-83
2023/09/03 06:32:36;;;;;;;17.67;12.93;;;;;;;14.66;100.00;101960.31;5095841;28;20211;-82
2023/09/03 06:35:05;;;;;;;18.07;12.73;;;;;;;14.68;100.00;101951.22;5094482;28;20204;-81
2023/09/03 06:37:32;;;;;;;14.30;11.87;;;;;;;14.71;100.00;101960.88;5093794;28;20220;-81
2023/09/03 06:39:58;;;;;;;15.40;12.30;;;;;;;14.74;100.00;101958.88;5090444;28;20235;-82
2023/09/03 06:42:26;;;;;;;16.27;12.40;;;;;;;14.78;100.00;101959.56;5073584;28;20210;-82
2023/09/03 06:44:53;;;;;;;14.73;12.57;;;;;;;14.80;100.00;101963.88;5073125;28;20201;-83
2023/09/03 06:47:19;;;;;;;15.13;11.60;;;;;;;14.85;100.00;101964.47;5074633;28;20216;-83
2023/09/03 06:49:46;;;;;;;15.90;12.30;;;;;;;14.90;100.00;101958.81;5073268;28;20241;-85
2023/09/03 06:52:16;;;;;;;14.00;12.50;;;;;;;14.98;100.00;101967.28;5074522;28;20218;-83
2023/09/03 06:54:43;;;;;;;14.80;11.33;;;;;;;15.07;100.00;101982.78;5075864;28;20190;-83
2023/09/03 06:57:09;;;;;;;14.47;11.23;;;;;;;15.16;100.00;101982.25;5074492;28;20209;-83
2023/09/03 06:59:36;;;;;;;13.27;11.30;;;;;;;15.22;100.00;101981.03;5074993;28;20650;-82
2023/09/03 07:02:02;;;;;;;14.00;11.53;;;;;;;15.31;100.00;101982.25;5074722;28;20243;-82
2023/09/03 07:04:29;;;;;;;13.87;10.77;;;;;;;15.37;100.00;101968.47;5075246;28;20233;-85
2023/09/03 07:06:55;;;;;;;14.13;11.33;;;;;;;15.44;100.00;101964.41;5073561;28;20208;-81
2023/09/03 07:09:23;;;;;;;11.43;10.27;;;;;;;15.49;100.00;101968.53;5076893;28;20225;-82
2023/09/03 07:11:49;;;;;;;12.70;10.43;;;;;;;15.60;100.00;101965.19;5076758;28;20210;-84
2023/09/03 07:14:16;;;;;;;13.73;10.27;;;;;;;15.72;100.00;101971.63;5077693;28;20212;-81
2023/09/03 07:16:42;;;;;;;12.00;9.97;;;;;;;15.85;100.00;101959.13;5076118;28;20579;-81
2023/09/03 07:19:09;;;;;;;10.17;8.43;;;;;;;15.97;100.00;101961.88;5075614;28;20563;-83
2023/09/03 07:21:35;;;;;;;9.63;7.47;;;;;;;16.03;100.00;101967.81;5076979;28;20238;-83
2023/09/03 07:24:02;;;;;;;7.93;6.30;;;;;;;16.08;99.16;101960.34;5076888;28;20227;-81
2023/09/03 07:26:30;;;;;;;9.50;7.87;;;;;;;16.13;98.44;101961.72;5077563;28;20209;-81
2023/09/03 07:28:56;;;;;;;9.10;7.83;;;;;;;16.17;98.15;101973.16;5077720;28;20569;-83
2023/09/03 07:31:23;;;;;;;9.77;8.77;;;;;;;16.23;97.94;101978.13;5077469;28;20622;-81
2023/09/03 07:33:49;;;;;;;10.13;9.13;;;;;;;16.29;98.14;101983.13;5077684;28;20658;-82
2023/09/03 07:36:16;;;;;;;9.80;8.07;;;;;;;16.37;98.37;101990.66;5076846;28;20218;-82
2023/09/03 07:38:42;;;;;;;11.70;9.53;;;;;;;16.40;97.39;101985.94;5075671;28;20591;-83
2023/09/03 07:41:10;;;;;;;12.60;9.57;;;;;;;16.46;96.82;101993.59;5077334;28;20610;-83
2023/09/03 07:43:38;;;;;;;10.60;8.27;;;;;;;16.52;96.57;101993.19;5088985;28;20307;-84
2023/09/03 07:46:05;;;;;;;9.70;8.63;;;;;;;16.57;95.60;101992.88;5093116;28;20208;-83
2023/09/03 07:48:31;;;;;;;9.87;8.80;;;;;;;16.64;95.30;102003.16;5092341;28;20861;-83
2023/09/03 07:50:58;;;;;;;11.33;9.17;;;;;;;16.75;95.02;102002.44;5091448;28;20733;-84
2023/09/03 07:53:24;;;;;;;11.37;8.47;;;;;;;16.89;94.67;102001.47;5092151;28;20669;-84
2023/09/03 07:55:51;;;;;;;11.70;8.87;;;;;;;17.04;94.16;102002.25;5083170;28;20209;-83
2023/09/03 07:58:17;;;;;;;9.23;7.67;;;;;;;17.21;92.73;101996.56;5089246;28;20261;-84
2023/09/03 08:00:46;;;;;;;6.90;6.20;;;;;;;17.37;91.66;101996.38;5082732;28;20351;-83
2023/09/03 08:03:12;;;;;;;6.40;5.73;;;;;;;17.50;89.76;101994.53;5091702;28;20210;-83
2023/09/03 08:05:38;;;;;;;9.60;7.47;;;;;;;17.65;88.20;101998.84;5089503;28;20207;-82
2023/09/03 08:08:05;;;;;;;7.53;6.47;;;;;;;17.78;87.22;102001.50;5089748;28;20214;-83
2023/09/03 08:10:33;;;;;;;9.90;7.30;;;;;;;17.90;84.79;102003.34;5088524;28;20227;-83
2023/09/03 08:12:59;;;;;;;10.00;7.93;;;;;;;18.00;84.35;102009.78;5084799;28;20210;-83
2023/09/03 08:15:25;;;;;;;8.57;7.40;;;;;;;18.09;84.06;102010.94;5087020;28;20202;-82
2023/09/03 08:17:53;;;;;;;7.93;6.30;;;;;;;18.17;82.29;102016.63;5052881;28;1058106;-82
2023/09/03 08:20:21;;;;;;;10.63;6.90;;;;;;;18.22;82.36;102017.16;5091288;28;20230;-82
2023/09/03 08:22:47;;;;;;;6.67;6.00;;;;;;;18.34;80.33;102005.44;5093522;28;20651;-84
2023/09/03 08:25:14;;;;;;;6.60;5.40;;;;;;;18.37;79.59;102000.69;5092106;28;20551;-83
2023/09/03 08:27:40;;;;;;;7.40;5.27;;;;;;;18.40;79.16;101991.50;5098414;28;20206;-84
2023/09/03 08:30:10;;;;;;;7.63;5.13;;;;;;;18.45;79.36;101997.41;5094292;28;20233;-83
2023/09/03 08:32:36;;;;;;;8.13;5.10;;;;;;;18.58;79.71;102002.75;5093336;28;20199;-84
2023/09/03 08:35:05;;;;;;;8.87;5.37;;;;;;;18.66;78.72;102001.22;5092537;28;20238;-85
2023/09/03 08:37:31;;;;;;;6.37;4.87;;;;;;;18.76;77.97;102000.53;5094433;28;20205;-83
2023/09/03 08:39:58;;;;;;;6.30;4.60;;;;;;;18.82;76.44;102003.59;5091589;28;20227;-82
2023/09/03 08:42:24;;;;;;;5.47;3.83;;;;;;;18.86;76.03;102001.53;5091281;28;20242;-84
2023/09/03 08:44:55;;;;;;;4.73;4.20;;;;;;;18.90;75.52;102016.53;5091878;28;20217;-83
2023/09/03 08:47:22;;;;;;;6.70;4.40;;;;;;;18.95;75.72;102006.25;5090560;28;20210;-83
2023/09/03 08:49:50;;;;;;;5.80;3.70;;;;;;;19.01;74.85;101994.94;5089489;28;20230;-85
2023/09/03 08:52:18;;;;;;;5.33;2.93;;;;;;;19.09;73.84;101997.91;5091715;28;20201;-82
2023/09/03 08:54:45;;;;;;;4.73;2.97;;;;;;;19.16;72.60;102007.28;5090797;28;20218;-81
2023/09/03 08:57:12;;;;;;;3.50;2.60;;;;;;;19.26;72.84;102015.50;5086869;28;20205;-84
2023/09/03 08:59:38;;;;;;;2.63;2.20;;;;;;;19.38;73.00;102015.41;5090098;28;20729;-82
2023/09/03 09:02:10;;;;;;;6.63;2.43;;;;;;;19.42;69.56;102022.28;5085017;28;20229;-83
2023/09/03 09:04:36;;;;;;;3.67;2.20;;;;;;;19.48;69.00;102015.53;5089068;28;20203;-82
2023/09/03 09:07:03;;;;;;;2.33;1.90;;;;;;;19.51;68.37;102017.19;5091050;28;20207;-82
2023/09/03 09:09:33;;;;;;;5.03;2.40;;;;;;;19.60;68.02;102021.84;5086824;28;20226;-85
2023/09/03 09:12:07;;;;;;;3.07;2.33;;;;;;;19.75;66.62;102017.91;5087991;28;20211;-81
2023/09/03 09:14:41;;;;;;;2.90;2.20;;;;;;;19.81;67.15;102019.25;5093336;28;20207;-84
2023/09/03 09:17:12;;;;;;;3.83;2.30;;;;;;;19.86;66.56;102022.47;5086444;28;20220;-83
2023/09/03 09:19:38;;;;;;;5.13;2.17;;;;;;;19.84;65.93;102025.28;5091720;28;20218;-83
2023/09/03 09:22:05;;;;;;;2.57;1.70;;;;;;;19.85;64.99;102016.19;5087637;28;20239;-83
2023/09/03 09:24:41;;;;;;;2.27;1.80;;;;;;;19.86;64.97;102017.91;5092905;28;20205;-83
2023/09/03 09:27:14;;;;;;;2.07;1.80;;;;;;;19.83;63.79;102023.56;5088681;28;20615;-83
2023/09/03 09:29:40;;;;;;;2.70;1.60;;;;;;;19.85;64.19;102023.44;5089399;28;20227;-83
2023/09/03 09:32:17;;;;;;;2.17;1.53;;;;;;;19.93;65.10;102032.66;5086290;28;20302;-83
2023/09/03 09:34:43;;;;;;;2.67;1.60;;;;;;;20.01;64.01;102026.63;5074289;28;20195;-82
2023/09/03 09:37:10;;;;;;;2.97;1.67;;;;;;;20.11;63.28;102033.00;5074300;28;20722;-81
2023/09/03 09:39:42;;;;;;;2.87;1.70;;;;;;;20.21;62.69;102030.41;5075570;28;20247;-81
2023/09/03 09:42:12;;;;;;;2.67;1.50;;;;;;;20.24;60.64;102027.47;5074150;28;20212;-81
2023/09/03 09:44:39;;;;;;;2.33;1.17;;;;;;;20.25;60.60;102031.84;5074322;28;20215;-81
2023/09/03 09:47:16;;;;;;;1.27;1.00;;;;;;;20.29;59.35;102038.75;5074629;28;20222;-80
2023/09/03 09:49:42;;;;;;;4.55;1.80;;;;;;;20.30;59.15;102030.50;5074385;28;20482;-81
2023/09/03 09:52:10;;;;;;;2.67;1.73;;;;;;;20.39;59.87;102026.22;5074992;28;20200;-81
2023/09/03 09:54:38;;;;;;;2.00;1.40;;;;;;;20.47;59.49;102015.59;5074547;28;20208;-83
2023/09/03 09:57:11;;;;;;;5.60;1.70;;;;;;;20.59;59.95;102014.59;5074734;28;20576;-81
2023/09/03 09:59:39;;;;;;;6.50;2.10;;;;;;;20.65;59.73;102019.47;5074086;28;20228;-80
2023/09/03 10:02:12;;;;;;;1.63;1.50;;;;;;;20.71;59.05;102012.69;5073472;28;20295;-84
2023/09/03 10:04:41;;;;;;;1.63;1.53;;;;;;;20.76;58.74;102007.75;5072629;28;20603;-83
2023/09/03 10:07:08;;;;;;;3.07;1.60;;;;;;;20.80;58.93;102001.91;5074763;28;20362;-83
2023/09/03 10:09:36;;;;;;;2.47;1.40;;;;;;;20.84;58.01;101999.81;5073977;28;20671;-81
2023/09/03 10:12:02;;;;;;;2.88;1.25;;;;;;;20.91;56.82;102013.72;5074641;28;20203;-80
2023/09/03 10:14:30;;;;;;;1.70;1.23;;;;;;;20.93;55.85;102009.88;5074044;28;20232;-81
2023/09/03 10:17:00;;;;;;;2.30;1.05;;;;;;;20.96;54.22;102011.47;5073564;28;20705;-81
2023/09/03 10:19:29;;;;;;;2.47;1.70;;;;;;;21.05;55.96;102002.53;5073630;28;20310;-81
2023/09/03 10:21:56;;;;;;;2.33;1.70;;;;;;;21.13;56.88;102006.31;5074877;28;20700;-81
2023/09/03 10:24:25;;;;;;;2.55;1.30;;;;;;;21.20;56.33;102012.06;5074106;28;20210;-81
2023/09/03 10:26:59;;;;;;;2.65;1.38;;;;;;;21.24;55.50;102009.97;5074285;28;20219;-82
2023/09/03 10:29:29;;;;;;;3.97;1.45;;;;;;;21.29;54.73;102000.47;5073042;28;20221;-80
2023/09/03 10:31:59;;;;;;;2.58;1.17;;;;;;;21.36;54.41;101998.91;5073136;28;20204;-80
2023/09/03 10:34:25;;;;;;;2.22;1.20;;;;;;;21.45;54.40;102006.25;5072964;28;20212;-81
2023/09/03 10:37:06;;;;;;;2.58;1.58;;;;;;;21.58;53.05;102006.03;5072702;28;20200;-82
2023/09/03 10:39:33;;;;;;;2.13;1.20;;;;;;;21.66;53.18;102008.91;5072676;28;20251;-81
2023/09/03 10:42:31;;;;;;;1.25;0.80;;;;;;;21.73;53.17;102012.78;5072303;28;20240;-80
2023/09/03 10:44:58;;;;;;;1.35;1.10;;;;;;;21.79;52.17;102014.09;5072831;28;20216;-80
2023/09/03 10:47:27;;;;;;;2.05;1.40;;;;;;;21.83;52.81;102026.41;5072744;28;20205;-81
2023/09/03 10:49:55;;;;;;;2.65;1.20;;;;;;;21.89;53.01;102020.41;5072307;28;20235;-82
2023/09/03 10:52:40;;;;;;;2.20;1.20;;;;;;;21.98;52.39;102022.31;5073041;28;20204;-81
2023/09/03 10:55:11;;;;;;;2.00;1.05;;;;;;;22.01;51.45;102018.50;5072622;28;20196;-82
2023/09/03 10:57:37;;;;;;;2.58;1.00;;;;;;;22.05;50.84;102022.63;5073326;28;20204;-84
2023/09/03 11:00:08;;;;;;;2.40;1.48;;;;;;;22.02;49.84;102018.38;5073197;28;20228;-83
2023/09/03 11:02:37;;;;;;;2.03;0.90;;;;;;;22.07;49.95;102016.06;5073542;28;20235;-82
2023/09/03 11:05:12;;;;;;;1.65;1.08;;;;;;;22.16;49.14;102014.41;5072732;28;20209;-83
2023/09/03 11:07:38;;;;;;;1.67;1.33;;;;;;;22.23;48.45;102017.41;5072126;28;20688;-82
2023/09/03 11:10:40;;;;;;;1.80;0.80;;;;;;;22.29;48.29;102033.13;5072143;28;20235;-81
2023/09/03 11:13:12;;;;;;;1.95;0.75;;;;;;;22.34;48.03;102042.56;5072721;28;20860;-82
2023/09/03 11:15:47;;;;;;;1.85;1.08;;;;;;;22.38;47.49;102038.59;5073536;28;20204;-82
2023/09/03 11:18:18;;;;;;;1.70;0.88;;;;;;;22.37;47.15;102038.72;5074119;28;20267;-82
2023/09/03 11:20:45;;;;;;;1.10;0.98;;;;;;;22.38;47.14;102035.88;5073888;28;20220;-81